sensor_id;sensor_type;location;lat;lon;timestamp;temperature;humidity
28010;DHT22;15334;49.494;8.410;2022-07-11T00:00:32;19.20;99.90
28010;DHT22;15334;49.494;8.410;2022-07-11T00:03:03;19.10;99.90
28010;DHT22;15334;49.494;8.410;2022-07-11T00:05:31;19.10;99.90
28010;DHT22;15334;49.494;8.410;2022-07-11T00:07:59;19.10;99.90
28010;DHT22;15334;49.494;8.410;2022-07-11T00:10:27;19.00;99.90
28010;DHT22;15334;49.494;8.410;2022-07-11T00:12:55;19.00;99.90
28010;DHT22;15334;49.494;8.410;2022-07-11T00:15:23;19.00;99.90
28010;DHT22;15334;49.494;8.410;2022-07-11T00:17:53;19.00;99.90
28010;DHT22;15334;49.494;8.410;2022-07-11T00:20:21;19.00;99.90
28010;DHT22;15334;49.494;8.410;2022-07-11T00:22:49;19.00;99.90
28010;DHT22;15334;49.494;8.410;2022-07-11T00:25:17;19.00;99.90
28010;DHT22;15334;49.494;8.410;2022-07-11T00:27:45;18.90;99.90
28010;DHT22;15334;49.494;8.410;2022-07-11T00:30:17;18.90;99.90
28010;DHT22;15334;49.494;8.410;2022-07-11T00:32:45;18.80;99.90
28010;DHT22;15334;49.494;8.410;2022-07-11T00:35:17;18.80;99.90
28010;DHT22;15334;49.494;8.410;2022-07-11T00:37:45;18.80;99.90
28010;DHT22;15334;49.494;8.410;2022-07-11T00:40:13;18.70;99.90
28010;DHT22;15334;49.494;8.410;2022-07-11T00:42:41;18.70;99.90
28010;DHT22;15334;49.494;8.410;2022-07-11T00:45:09;18.60;99.90
28010;DHT22;15334;49.494;8.410;2022-07-11T00:47:37;18.50;99.90
28010;DHT22;15334;49.494;8.410;2022-07-11T00:50:06;18.50;99.90
28010;DHT22;15334;49.494;8.410;2022-07-11T00:52:36;18.40;99.90
28010;DHT22;15334;49.494;8.410;2022-07-11T00:55:05;18.40;99.90
28010;DHT22;15334;49.494;8.410;2022-07-11T00:57:34;18.30;99.90
28010;DHT22;15334;49.494;8.410;2022-07-11T01:00:04;18.20;99.90
28010;DHT22;15334;49.494;8.410;2022-07-11T01:02:33;18.20;99.90
28010;DHT22;15334;49.494;8.410;2022-07-11T01:05:01;18.10;99.90
28010;DHT22;15334;49.494;8.410;2022-07-11T01:07:30;18.00;99.90
28010;DHT22;15334;49.494;8.410;2022-07-11T01:09:59;18.00;99.90
28010;DHT22;15334;49.494;8.410;2022-07-11T01:12:27;18.00;99.90
28010;DHT22;15334;49.494;8.410;2022-07-11T01:14:56;17.90;99.90
28010;DHT22;15334;49.494;8.410;2022-07-11T01:17:26;17.80;99.90
28010;DHT22;15334;49.494;8.410;2022-07-11T01:19:54;17.80;99.90
28010;DHT22;15334;49.494;8.410;2022-07-11T01:22:24;17.80;99.90
28010;DHT22;15334;49.494;8.410;2022-07-11T01:24:54;17.70;99.90
28010;DHT22;15334;49.494;8.410;2022-07-11T01:27:23;17.70;99.90
28010;DHT22;15334;49.494;8.410;2022-07-11T01:29:51;17.60;99.90
28010;DHT22;15334;49.494;8.410;2022-07-11T01:32:19;17.60;99.90
28010;DHT22;15334;49.494;8.410;2022-07-11T01:34:47;17.50;99.90
28010;DHT22;15334;49.494;8.410;2022-07-11T01:37:16;17.40;99.90
28010;DHT22;15334;49.494;8.410;2022-07-11T01:39:44;17.40;99.90
28010;DHT22;15334;49.494;8.410;2022-07-11T01:42:13;17.40;99.90
28010;DHT22;15334;49.494;8.410;2022-07-11T01:44:41;17.40;99.90
28010;DHT22;15334;49.494;8.410;2022-07-11T01:47:09;17.40;99.90
28010;DHT22;15334;49.494;8.410;2022-07-11T01:49:39;17.50;99.90
28010;DHT22;15334;49.494;8.410;2022-07-11T01:52:10;17.50;99.90
28010;DHT22;15334;49.494;8.410;2022-07-11T01:54:38;17.50;99.90
28010;DHT22;15334;49.494;8.410;2022-07-11T01:57:06;17.60;99.90
28010;DHT22;15334;49.494;8.410;2022-07-11T01:59:38;17.60;99.90
28010;DHT22;15334;49.494;8.410;2022-07-11T02:02:06;17.70;99.90
28010;DHT22;15334;49.494;8.410;2022-07-11T02:04:36;17.80;99.90
28010;DHT22;15334;49.494;8.410;2022-07-11T02:07:07;17.80;99.90
28010;DHT22;15334;49.494;8.410;2022-07-11T02:09:38;17.90;99.90
28010;DHT22;15334;49.494;8.410;2022-07-11T02:12:06;18.00;99.90
28010;DHT22;15334;49.494;8.410;2022-07-11T02:14:34;18.00;99.90
28010;DHT22;15334;49.494;8.410;2022-07-11T02:17:04;18.00;99.90
28010;DHT22;15334;49.494;8.410;2022-07-11T02:19:33;18.00;99.90
28010;DHT22;15334;49.494;8.410;2022-07-11T02:22:01;18.00;99.90
28010;DHT22;15334;49.494;8.410;2022-07-11T02:24:34;18.10;99.90
28010;DHT22;15334;49.494;8.410;2022-07-11T02:27:03;18.10;99.90
28010;DHT22;15334;49.494;8.410;2022-07-11T02:29:31;18.10;99.90
28010;DHT22;15334;49.494;8.410;2022-07-11T02:32:01;18.10;99.90
28010;DHT22;15334;49.494;8.410;2022-07-11T02:34:31;18.20;99.90
28010;DHT22;15334;49.494;8.410;2022-07-11T02:36:59;18.10;99.90
28010;DHT22;15334;49.494;8.410;2022-07-11T02:39:27;18.10;99.90
28010;DHT22;15334;49.494;8.410;2022-07-11T02:41:56;18.20;99.90
28010;DHT22;15334;49.494;8.410;2022-07-11T02:44:24;18.20;99.90
28010;DHT22;15334;49.494;8.410;2022-07-11T02:46:52;18.20;99.90
28010;DHT22;15334;49.494;8.410;2022-07-11T02:49:20;18.20;99.90
28010;DHT22;15334;49.494;8.410;2022-07-11T02:51:49;18.20;99.90
28010;DHT22;15334;49.494;8.410;2022-07-11T02:54:17;18.20;99.90
28010;DHT22;15334;49.494;8.410;2022-07-11T02:56:45;18.20;99.90
28010;DHT22;15334;49.494;8.410;2022-07-11T02:59:14;18.30;99.90
28010;DHT22;15334;49.494;8.410;2022-07-11T03:01:42;18.30;99.90
28010;DHT22;15334;49.494;8.410;2022-07-11T03:04:10;18.30;99.90
28010;DHT22;15334;49.494;8.410;2022-07-11T03:06:39;18.30;99.90
28010;DHT22;15334;49.494;8.410;2022-07-11T03:09:09;18.30;99.90
28010;DHT22;15334;49.494;8.410;2022-07-11T03:11:37;18.30;99.90
28010;DHT22;15334;49.494;8.410;2022-07-11T03:14:05;18.30;99.90
28010;DHT22;15334;49.494;8.410;2022-07-11T03:16:33;18.30;99.90
28010;DHT22;15334;49.494;8.410;2022-07-11T03:19:01;18.30;99.90
28010;DHT22;15334;49.494;8.410;2022-07-11T03:21:29;18.30;99.90
28010;DHT22;15334;49.494;8.410;2022-07-11T03:23:57;18.30;99.90
28010;DHT22;15334;49.494;8.410;2022-07-11T03:26:27;18.30;99.90
28010;DHT22;15334;49.494;8.410;2022-07-11T03:28:55;18.30;99.90
28010;DHT22;15334;49.494;8.410;2022-07-11T03:31:23;18.30;99.90
28010;DHT22;15334;49.494;8.410;2022-07-11T03:33:53;18.30;99.90
28010;DHT22;15334;49.494;8.410;2022-07-11T03:36:21;18.40;99.90
28010;DHT22;15334;49.494;8.410;2022-07-11T03:38:49;18.40;99.90
28010;DHT22;15334;49.494;8.410;2022-07-11T03:41:17;18.40;99.90
28010;DHT22;15334;49.494;8.410;2022-07-11T03:43:46;18.40;99.90
28010;DHT22;15334;49.494;8.410;2022-07-11T03:46:14;18.50;99.90
28010;DHT22;15334;49.494;8.410;2022-07-11T03:48:42;18.50;99.90
28010;DHT22;15334;49.494;8.410;2022-07-11T03:51:11;18.50;99.90
28010;DHT22;15334;49.494;8.410;2022-07-11T03:53:39;18.50;99.90
28010;DHT22;15334;49.494;8.410;2022-07-11T03:56:07;18.50;99.90
28010;DHT22;15334;49.494;8.410;2022-07-11T03:58:36;18.50;99.90
28010;DHT22;15334;49.494;8.410;2022-07-11T04:01:05;18.50;99.90
28010;DHT22;15334;49.494;8.410;2022-07-11T04:03:33;18.60;99.90
28010;DHT22;15334;49.494;8.410;2022-07-11T04:06:01;18.60;99.90
28010;DHT22;15334;49.494;8.410;2022-07-11T04:08:29;18.70;99.90
28010;DHT22;15334;49.494;8.410;2022-07-11T04:11:00;18.70;99.90
28010;DHT22;15334;49.494;8.410;2022-07-11T04:13:30;18.70;99.90
28010;DHT22;15334;49.494;8.410;2022-07-11T04:15:58;18.70;99.90
28010;DHT22;15334;49.494;8.410;2022-07-11T04:18:28;18.70;99.90
28010;DHT22;15334;49.494;8.410;2022-07-11T04:20:59;18.60;99.90
28010;DHT22;15334;49.494;8.410;2022-07-11T04:23:34;18.60;99.90
28010;DHT22;15334;49.494;8.410;2022-07-11T04:26:03;18.70;99.90
28010;DHT22;15334;49.494;8.410;2022-07-11T04:28:31;18.70;99.90
28010;DHT22;15334;49.494;8.410;2022-07-11T04:30:59;18.70;99.90
28010;DHT22;15334;49.494;8.410;2022-07-11T04:33:28;18.70;99.90
28010;DHT22;15334;49.494;8.410;2022-07-11T04:35:56;18.70;99.90
28010;DHT22;15334;49.494;8.410;2022-07-11T04:38:24;18.80;99.90
28010;DHT22;15334;49.494;8.410;2022-07-11T04:40:53;18.70;99.90
28010;DHT22;15334;49.494;8.410;2022-07-11T04:43:21;18.80;99.90
28010;DHT22;15334;49.494;8.410;2022-07-11T04:45:49;18.80;99.90
28010;DHT22;15334;49.494;8.410;2022-07-11T04:48:22;18.90;99.90
28010;DHT22;15334;49.494;8.410;2022-07-11T04:50:52;18.90;99.90
28010;DHT22;15334;49.494;8.410;2022-07-11T04:53:20;18.90;99.90
28010;DHT22;15334;49.494;8.410;2022-07-11T04:55:48;19.00;99.90
28010;DHT22;15334;49.494;8.410;2022-07-11T04:58:16;19.00;99.90
28010;DHT22;15334;49.494;8.410;2022-07-11T05:00:44;19.10;99.90
28010;DHT22;15334;49.494;8.410;2022-07-11T05:03:12;19.10;99.90
28010;DHT22;15334;49.494;8.410;2022-07-11T05:05:41;19.10;99.90
28010;DHT22;15334;49.494;8.410;2022-07-11T05:08:10;19.20;99.90
28010;DHT22;15334;49.494;8.410;2022-07-11T05:10:39;19.20;99.90
28010;DHT22;15334;49.494;8.410;2022-07-11T05:13:07;19.20;99.90
28010;DHT22;15334;49.494;8.410;2022-07-11T05:15:35;19.30;99.90
28010;DHT22;15334;49.494;8.410;2022-07-11T05:18:03;19.40;99.90
28010;DHT22;15334;49.494;8.410;2022-07-11T05:20:31;19.40;99.90
28010;DHT22;15334;49.494;8.410;2022-07-11T05:23:00;19.40;99.90
28010;DHT22;15334;49.494;8.410;2022-07-11T05:25:29;19.40;99.90
28010;DHT22;15334;49.494;8.410;2022-07-11T05:27:57;19.40;99.90
28010;DHT22;15334;49.494;8.410;2022-07-11T05:30:25;19.50;99.90
28010;DHT22;15334;49.494;8.410;2022-07-11T05:32:53;19.50;99.90
28010;DHT22;15334;49.494;8.410;2022-07-11T05:35:21;19.40;99.90
28010;DHT22;15334;49.494;8.410;2022-07-11T05:37:49;19.40;99.90
28010;DHT22;15334;49.494;8.410;2022-07-11T05:40:17;19.50;99.90
28010;DHT22;15334;49.494;8.410;2022-07-11T05:42:48;19.50;99.90
28010;DHT22;15334;49.494;8.410;2022-07-11T05:45:16;19.50;99.90
28010;DHT22;15334;49.494;8.410;2022-07-11T05:47:47;19.60;99.90
28010;DHT22;15334;49.494;8.410;2022-07-11T05:50:15;19.60;99.90
28010;DHT22;15334;49.494;8.410;2022-07-11T05:52:43;19.60;99.90
28010;DHT22;15334;49.494;8.410;2022-07-11T05:55:11;19.60;99.90
28010;DHT22;15334;49.494;8.410;2022-07-11T05:57:45;19.70;99.90
28010;DHT22;15334;49.494;8.410;2022-07-11T06:00:15;19.80;99.90
28010;DHT22;15334;49.494;8.410;2022-07-11T06:02:43;19.80;99.90
28010;DHT22;15334;49.494;8.410;2022-07-11T06:05:12;19.90;99.90
28010;DHT22;15334;49.494;8.410;2022-07-11T06:07:40;19.90;99.90
28010;DHT22;15334;49.494;8.410;2022-07-11T06:10:26;20.00;99.90
28010;DHT22;15334;49.494;8.410;2022-07-11T06:12:55;20.10;99.90
28010;DHT22;15334;49.494;8.410;2022-07-11T06:15:28;20.20;99.90
28010;DHT22;15334;49.494;8.410;2022-07-11T06:17:57;20.30;99.90
28010;DHT22;15334;49.494;8.410;2022-07-11T06:20:25;20.40;99.90
28010;DHT22;15334;49.494;8.410;2022-07-11T06:22:54;20.50;99.90
28010;DHT22;15334;49.494;8.410;2022-07-11T06:25:22;20.60;99.90
28010;DHT22;15334;49.494;8.410;2022-07-11T06:27:50;20.70;99.90
28010;DHT22;15334;49.494;8.410;2022-07-11T06:30:19;20.80;99.90
28010;DHT22;15334;49.494;8.410;2022-07-11T06:32:49;20.90;99.90
28010;DHT22;15334;49.494;8.410;2022-07-11T06:35:17;21.00;99.90
28010;DHT22;15334;49.494;8.410;2022-07-11T06:37:45;21.00;99.90
28010;DHT22;15334;49.494;8.410;2022-07-11T06:40:13;20.90;99.90
28010;DHT22;15334;49.494;8.410;2022-07-11T06:42:44;20.80;99.90
28010;DHT22;15334;49.494;8.410;2022-07-11T06:45:12;20.70;99.90
28010;DHT22;15334;49.494;8.410;2022-07-11T06:47:40;20.70;99.90
28010;DHT22;15334;49.494;8.410;2022-07-11T06:50:10;20.80;99.90
28010;DHT22;15334;49.494;8.410;2022-07-11T06:52:39;20.70;99.90
28010;DHT22;15334;49.494;8.410;2022-07-11T06:55:08;20.80;99.90
28010;DHT22;15334;49.494;8.410;2022-07-11T06:57:38;20.80;99.90
28010;DHT22;15334;49.494;8.410;2022-07-11T07:00:08;20.70;99.90
28010;DHT22;15334;49.494;8.410;2022-07-11T07:02:37;20.80;99.90
28010;DHT22;15334;49.494;8.410;2022-07-11T07:05:06;20.80;99.90
28010;DHT22;15334;49.494;8.410;2022-07-11T07:07:40;20.80;99.90
28010;DHT22;15334;49.494;8.410;2022-07-11T07:10:09;20.90;99.90
28010;DHT22;15334;49.494;8.410;2022-07-11T07:12:38;20.90;99.90
28010;DHT22;15334;49.494;8.410;2022-07-11T07:15:07;21.00;99.90
28010;DHT22;15334;49.494;8.410;2022-07-11T07:17:35;20.90;99.90
28010;DHT22;15334;49.494;8.410;2022-07-11T07:20:05;20.90;99.90
28010;DHT22;15334;49.494;8.410;2022-07-11T07:22:35;21.00;99.90
28010;DHT22;15334;49.494;8.410;2022-07-11T07:25:07;21.00;99.90
28010;DHT22;15334;49.494;8.410;2022-07-11T07:27:36;21.20;99.90
28010;DHT22;15334;49.494;8.410;2022-07-11T07:30:04;21.40;99.90
28010;DHT22;15334;49.494;8.410;2022-07-11T07:32:34;21.70;99.90
28010;DHT22;15334;49.494;8.410;2022-07-11T07:35:02;21.80;99.90
28010;DHT22;15334;49.494;8.410;2022-07-11T07:37:30;21.90;99.90
28010;DHT22;15334;49.494;8.410;2022-07-11T07:39:58;22.00;99.90
28010;DHT22;15334;49.494;8.410;2022-07-11T07:42:28;21.90;99.90
28010;DHT22;15334;49.494;8.410;2022-07-11T07:44:56;21.80;99.90
28010;DHT22;15334;49.494;8.410;2022-07-11T07:47:24;21.80;99.90
28010;DHT22;15334;49.494;8.410;2022-07-11T07:49:52;21.80;99.90
28010;DHT22;15334;49.494;8.410;2022-07-11T07:52:20;21.90;99.90
28010;DHT22;15334;49.494;8.410;2022-07-11T07:54:48;22.00;99.90
28010;DHT22;15334;49.494;8.410;2022-07-11T07:57:18;22.10;99.90
28010;DHT22;15334;49.494;8.410;2022-07-11T07:59:48;22.30;99.90
28010;DHT22;15334;49.494;8.410;2022-07-11T08:02:16;22.30;99.90
28010;DHT22;15334;49.494;8.410;2022-07-11T08:04:43;22.50;99.90
28010;DHT22;15334;49.494;8.410;2022-07-11T08:07:13;22.60;99.90
28010;DHT22;15334;49.494;8.410;2022-07-11T08:09:41;22.70;99.90
28010;DHT22;15334;49.494;8.410;2022-07-11T08:12:09;22.80;99.90
28010;DHT22;15334;49.494;8.410;2022-07-11T08:14:38;22.90;99.90
28010;DHT22;15334;49.494;8.410;2022-07-11T08:17:08;22.90;99.90
28010;DHT22;15334;49.494;8.410;2022-07-11T08:19:37;22.90;99.90
28010;DHT22;15334;49.494;8.410;2022-07-11T08:22:06;22.80;99.90
28010;DHT22;15334;49.494;8.410;2022-07-11T08:24:34;22.40;99.90
28010;DHT22;15334;49.494;8.410;2022-07-11T08:27:03;22.30;99.90
28010;DHT22;15334;49.494;8.410;2022-07-11T08:29:51;22.30;99.90
28010;DHT22;15334;49.494;8.410;2022-07-11T08:32:20;22.30;99.90
28010;DHT22;15334;49.494;8.410;2022-07-11T08:34:48;22.30;99.90
28010;DHT22;15334;49.494;8.410;2022-07-11T08:37:16;22.20;99.90
28010;DHT22;15334;49.494;8.410;2022-07-11T08:39:44;21.90;99.90
28010;DHT22;15334;49.494;8.410;2022-07-11T08:42:19;21.90;99.90
28010;DHT22;15334;49.494;8.410;2022-07-11T08:44:47;22.00;99.90
28010;DHT22;15334;49.494;8.410;2022-07-11T08:47:15;22.10;99.90
28010;DHT22;15334;49.494;8.410;2022-07-11T08:49:46;22.20;99.90
28010;DHT22;15334;49.494;8.410;2022-07-11T08:52:15;22.30;99.90
28010;DHT22;15334;49.494;8.410;2022-07-11T08:54:45;22.30;99.90
28010;DHT22;15334;49.494;8.410;2022-07-11T08:57:14;22.20;99.90
28010;DHT22;15334;49.494;8.410;2022-07-11T08:59:43;22.20;99.90
28010;DHT22;15334;49.494;8.410;2022-07-11T09:02:13;22.20;99.90
28010;DHT22;15334;49.494;8.410;2022-07-11T09:04:42;22.40;99.90
28010;DHT22;15334;49.494;8.410;2022-07-11T09:07:12;22.90;99.90
28010;DHT22;15334;49.494;8.410;2022-07-11T09:09:40;23.20;99.90
28010;DHT22;15334;49.494;8.410;2022-07-11T09:12:10;23.20;99.90
28010;DHT22;15334;49.494;8.410;2022-07-11T09:14:39;23.20;99.90
28010;DHT22;15334;49.494;8.410;2022-07-11T09:17:09;23.10;99.90
28010;DHT22;15334;49.494;8.410;2022-07-11T09:19:37;23.20;99.90
28010;DHT22;15334;49.494;8.410;2022-07-11T09:22:07;23.30;99.90
28010;DHT22;15334;49.494;8.410;2022-07-11T09:24:58;23.30;99.90
28010;DHT22;15334;49.494;8.410;2022-07-11T09:27:45;23.30;99.90
28010;DHT22;15334;49.494;8.410;2022-07-11T09:30:24;23.30;99.90
28010;DHT22;15334;49.494;8.410;2022-07-11T09:32:57;23.20;99.90
28010;DHT22;15334;49.494;8.410;2022-07-11T09:35:27;22.90;99.90
28010;DHT22;15334;49.494;8.410;2022-07-11T09:37:56;22.90;99.90
28010;DHT22;15334;49.494;8.410;2022-07-11T09:40:25;23.00;99.90
28010;DHT22;15334;49.494;8.410;2022-07-11T09:42:54;23.00;99.90
28010;DHT22;15334;49.494;8.410;2022-07-11T09:45:24;23.10;99.90
28010;DHT22;15334;49.494;8.410;2022-07-11T09:47:53;23.30;99.90
28010;DHT22;15334;49.494;8.410;2022-07-11T09:50:24;23.30;99.90
28010;DHT22;15334;49.494;8.410;2022-07-11T09:53:01;23.40;99.90
28010;DHT22;15334;49.494;8.410;2022-07-11T09:55:34;23.60;99.90
28010;DHT22;15334;49.494;8.410;2022-07-11T09:58:19;23.30;99.90
28010;DHT22;15334;49.494;8.410;2022-07-11T10:00:49;23.20;99.90
28010;DHT22;15334;49.494;8.410;2022-07-11T10:03:21;23.10;99.90
28010;DHT22;15334;49.494;8.410;2022-07-11T10:06:09;23.30;99.90
28010;DHT22;15334;49.494;8.410;2022-07-11T10:08:40;23.40;99.90
28010;DHT22;15334;49.494;8.410;2022-07-11T10:11:09;23.50;99.90
28010;DHT22;15334;49.494;8.410;2022-07-11T10:13:40;23.50;99.90
28010;DHT22;15334;49.494;8.410;2022-07-11T10:16:22;23.60;99.90
28010;DHT22;15334;49.494;8.410;2022-07-11T10:19:04;23.70;99.90
28010;DHT22;15334;49.494;8.410;2022-07-11T10:21:39;23.80;99.90
28010;DHT22;15334;49.494;8.410;2022-07-11T10:24:26;23.80;99.90
28010;DHT22;15334;49.494;8.410;2022-07-11T10:27:02;23.90;99.90
28010;DHT22;15334;49.494;8.410;2022-07-11T10:29:36;23.80;99.90
28010;DHT22;15334;49.494;8.410;2022-07-11T10:32:08;23.80;99.90
28010;DHT22;15334;49.494;8.410;2022-07-11T10:34:41;24.10;99.90
28010;DHT22;15334;49.494;8.410;2022-07-11T10:37:09;24.30;99.90
28010;DHT22;15334;49.494;8.410;2022-07-11T10:39:41;24.30;99.90
28010;DHT22;15334;49.494;8.410;2022-07-11T10:42:37;24.30;99.90
28010;DHT22;15334;49.494;8.410;2022-07-11T10:45:08;24.50;99.90
28010;DHT22;15334;49.494;8.410;2022-07-11T10:47:42;24.60;99.90
28010;DHT22;15334;49.494;8.410;2022-07-11T10:50:34;24.50;99.90
28010;DHT22;15334;49.494;8.410;2022-07-11T10:53:07;24.40;99.90
28010;DHT22;15334;49.494;8.410;2022-07-11T10:55:45;24.50;99.90
28010;DHT22;15334;49.494;8.410;2022-07-11T10:58:25;24.70;99.90
28010;DHT22;15334;49.494;8.410;2022-07-11T11:01:08;25.00;99.90
28010;DHT22;15334;49.494;8.410;2022-07-11T11:03:37;25.20;99.90
28010;DHT22;15334;49.494;8.410;2022-07-11T11:06:06;25.40;99.90
28010;DHT22;15334;49.494;8.410;2022-07-11T11:08:42;25.50;99.90
28010;DHT22;15334;49.494;8.410;2022-07-11T11:11:36;25.00;99.90
28010;DHT22;15334;49.494;8.410;2022-07-11T11:14:25;24.80;99.90
28010;DHT22;15334;49.494;8.410;2022-07-11T11:17:33;24.70;99.90
28010;DHT22;15334;49.494;8.410;2022-07-11T11:20:03;24.80;99.90
28010;DHT22;15334;49.494;8.410;2022-07-11T11:22:31;24.90;99.90
28010;DHT22;15334;49.494;8.410;2022-07-11T11:25:00;24.80;99.90
28010;DHT22;15334;49.494;8.410;2022-07-11T11:28:02;25.00;99.90
28010;DHT22;15334;49.494;8.410;2022-07-11T11:30:32;25.50;99.90
28010;DHT22;15334;49.494;8.410;2022-07-11T11:33:01;25.40;99.90
28010;DHT22;15334;49.494;8.410;2022-07-11T11:35:29;25.50;99.90
28010;DHT22;15334;49.494;8.410;2022-07-11T11:38:01;25.70;99.90
28010;DHT22;15334;49.494;8.410;2022-07-11T11:40:29;25.50;99.90
28010;DHT22;15334;49.494;8.410;2022-07-11T11:42:57;25.00;99.90
28010;DHT22;15334;49.494;8.410;2022-07-11T11:45:25;24.90;99.90
28010;DHT22;15334;49.494;8.410;2022-07-11T11:47:55;25.00;99.90
28010;DHT22;15334;49.494;8.410;2022-07-11T11:50:23;25.50;99.90
28010;DHT22;15334;49.494;8.410;2022-07-11T11:52:51;26.10;99.80
28010;DHT22;15334;49.494;8.410;2022-07-11T11:55:22;26.50;99.70
28010;DHT22;15334;49.494;8.410;2022-07-11T11:57:50;26.30;99.50
28010;DHT22;15334;49.494;8.410;2022-07-11T12:00:22;26.20;99.40
28010;DHT22;15334;49.494;8.410;2022-07-11T12:03:14;26.00;99.60
28010;DHT22;15334;49.494;8.410;2022-07-11T12:05:54;26.20;99.30
28010;DHT22;15334;49.494;8.410;2022-07-11T12:08:26;26.40;98.80
28010;DHT22;15334;49.494;8.410;2022-07-11T12:10:55;26.50;98.50
28010;DHT22;15334;49.494;8.410;2022-07-11T12:13:23;26.50;98.20
28010;DHT22;15334;49.494;8.410;2022-07-11T12:15:51;26.90;97.70
28010;DHT22;15334;49.494;8.410;2022-07-11T12:18:44;27.50;97.40
28010;DHT22;15334;49.494;8.410;2022-07-11T12:21:16;27.60;96.30
28010;DHT22;15334;49.494;8.410;2022-07-11T12:23:44;27.60;96.10
28010;DHT22;15334;49.494;8.410;2022-07-11T12:26:15;27.90;96.40
28010;DHT22;15334;49.494;8.410;2022-07-11T12:29:03;27.70;95.80
28010;DHT22;15334;49.494;8.410;2022-07-11T12:31:41;27.30;95.40
28010;DHT22;15334;49.494;8.410;2022-07-11T12:34:11;27.40;95.40
28010;DHT22;15334;49.494;8.410;2022-07-11T12:36:39;27.80;94.50
28010;DHT22;15334;49.494;8.410;2022-07-11T12:39:08;28.00;94.60
28010;DHT22;15334;49.494;8.410;2022-07-11T12:41:36;27.70;94.20
28010;DHT22;15334;49.494;8.410;2022-07-11T12:44:04;27.70;94.30
28010;DHT22;15334;49.494;8.410;2022-07-11T12:47:03;27.70;93.70
28010;DHT22;15334;49.494;8.410;2022-07-11T12:49:41;27.40;93.50
28010;DHT22;15334;49.494;8.410;2022-07-11T12:52:14;27.50;94.30
28010;DHT22;15334;49.494;8.410;2022-07-11T12:54:42;27.50;94.40
28010;DHT22;15334;49.494;8.410;2022-07-11T12:57:16;28.40;94.20
28010;DHT22;15334;49.494;8.410;2022-07-11T12:59:44;30.00;91.70
28010;DHT22;15334;49.494;8.410;2022-07-11T13:02:13;30.20;90.00
28010;DHT22;15334;49.494;8.410;2022-07-11T13:05:10;29.20;90.70
28010;DHT22;15334;49.494;8.410;2022-07-11T13:07:42;28.40;91.30
28010;DHT22;15334;49.494;8.410;2022-07-11T13:10:28;28.20;92.30
28010;DHT22;15334;49.494;8.410;2022-07-11T13:13:28;28.60;91.10
28010;DHT22;15334;49.494;8.410;2022-07-11T13:15:57;28.70;90.60
28010;DHT22;15334;49.494;8.410;2022-07-11T13:18:28;28.00;91.50
28010;DHT22;15334;49.494;8.410;2022-07-11T13:21:06;27.20;92.10
28010;DHT22;15334;49.494;8.410;2022-07-11T13:23:34;26.80;93.00
28010;DHT22;15334;49.494;8.410;2022-07-11T13:26:03;26.20;93.50
28010;DHT22;15334;49.494;8.410;2022-07-11T13:28:36;26.30;93.90
28010;DHT22;15334;49.494;8.410;2022-07-11T13:31:05;26.60;93.70
28010;DHT22;15334;49.494;8.410;2022-07-11T13:33:43;26.90;93.40
28010;DHT22;15334;49.494;8.410;2022-07-11T13:36:15;26.70;93.60
28010;DHT22;15334;49.494;8.410;2022-07-11T13:38:43;26.80;94.70
28010;DHT22;15334;49.494;8.410;2022-07-11T13:41:11;28.10;92.40
28010;DHT22;15334;49.494;8.410;2022-07-11T13:43:43;29.60;91.50
28010;DHT22;15334;49.494;8.410;2022-07-11T13:46:17;30.30;89.00
28010;DHT22;15334;49.494;8.410;2022-07-11T13:48:52;29.70;90.20
28010;DHT22;15334;49.494;8.410;2022-07-11T13:51:21;29.40;91.00
28010;DHT22;15334;49.494;8.410;2022-07-11T13:53:49;30.50;88.80
28010;DHT22;15334;49.494;8.410;2022-07-11T13:56:17;32.20;83.80
28010;DHT22;15334;49.494;8.410;2022-07-11T13:58:45;32.50;80.30
28010;DHT22;15334;49.494;8.410;2022-07-11T14:01:13;32.10;80.50
28010;DHT22;15334;49.494;8.410;2022-07-11T14:03:42;30.90;82.20
28010;DHT22;15334;49.494;8.410;2022-07-11T14:06:10;30.70;82.20
28010;DHT22;15334;49.494;8.410;2022-07-11T14:08:59;31.60;81.40
28010;DHT22;15334;49.494;8.410;2022-07-11T14:11:28;33.30;77.70
28010;DHT22;15334;49.494;8.410;2022-07-11T14:13:57;34.30;75.50
28010;DHT22;15334;49.494;8.410;2022-07-11T14:16:26;34.70;71.30
28010;DHT22;15334;49.494;8.410;2022-07-11T14:18:54;34.90;71.00
28010;DHT22;15334;49.494;8.410;2022-07-11T14:21:23;34.20;70.20
28010;DHT22;15334;49.494;8.410;2022-07-11T14:23:51;32.30;74.10
28010;DHT22;15334;49.494;8.410;2022-07-11T14:26:20;32.20;75.10
28010;DHT22;15334;49.494;8.410;2022-07-11T14:28:54;32.80;74.00
28010;DHT22;15334;49.494;8.410;2022-07-11T14:31:27;32.70;73.10
28010;DHT22;15334;49.494;8.410;2022-07-11T14:33:58;32.60;73.10
28010;DHT22;15334;49.494;8.410;2022-07-11T14:36:27;32.40;73.00
28010;DHT22;15334;49.494;8.410;2022-07-11T14:38:54;31.90;74.70
28010;DHT22;15334;49.494;8.410;2022-07-11T14:41:24;30.40;78.20
28010;DHT22;15334;49.494;8.410;2022-07-11T14:43:52;29.30;79.40
28010;DHT22;15334;49.494;8.410;2022-07-11T14:46:20;28.40;80.60
28010;DHT22;15334;49.494;8.410;2022-07-11T14:48:49;28.00;81.60
28010;DHT22;15334;49.494;8.410;2022-07-11T14:51:17;27.90;82.50
28010;DHT22;15334;49.494;8.410;2022-07-11T14:54:05;28.10;83.10
28010;DHT22;15334;49.494;8.410;2022-07-11T14:56:36;27.80;84.00
28010;DHT22;15334;49.494;8.410;2022-07-11T14:59:06;27.50;83.90
28010;DHT22;15334;49.494;8.410;2022-07-11T15:01:35;27.30;84.50
28010;DHT22;15334;49.494;8.410;2022-07-11T15:04:03;27.30;84.90
28010;DHT22;15334;49.494;8.410;2022-07-11T15:06:31;27.20;86.00
28010;DHT22;15334;49.494;8.410;2022-07-11T15:09:17;26.90;86.30
28010;DHT22;15334;49.494;8.410;2022-07-11T15:12:04;26.50;85.50
28010;DHT22;15334;49.494;8.410;2022-07-11T15:14:50;26.40;85.70
28010;DHT22;15334;49.494;8.410;2022-07-11T15:17:19;26.30;87.40
28010;DHT22;15334;49.494;8.410;2022-07-11T15:19:48;26.40;88.70
28010;DHT22;15334;49.494;8.410;2022-07-11T15:22:16;26.50;87.40
28010;DHT22;15334;49.494;8.410;2022-07-11T15:24:46;26.80;84.20
28010;DHT22;15334;49.494;8.410;2022-07-11T15:27:15;26.70;87.00
28010;DHT22;15334;49.494;8.410;2022-07-11T15:29:43;26.70;86.60
28010;DHT22;15334;49.494;8.410;2022-07-11T15:32:14;26.60;86.10
28010;DHT22;15334;49.494;8.410;2022-07-11T15:34:42;26.60;86.40
28010;DHT22;15334;49.494;8.410;2022-07-11T15:37:16;26.70;86.30
28010;DHT22;15334;49.494;8.410;2022-07-11T15:39:44;26.80;87.40
28010;DHT22;15334;49.494;8.410;2022-07-11T15:42:17;26.80;86.50
28010;DHT22;15334;49.494;8.410;2022-07-11T15:44:45;26.70;86.10
28010;DHT22;15334;49.494;8.410;2022-07-11T15:47:13;26.80;86.80
28010;DHT22;15334;49.494;8.410;2022-07-11T15:49:42;26.90;86.50
28010;DHT22;15334;49.494;8.410;2022-07-11T15:52:11;26.90;87.00